Beverly, Massachusetts
Current Conditions -  °F | °C
As of 6:53 PM on Saturday 22 Nov 2014 (Local Time) from KBVY Reporting Station
Overcast Overcast  
Wind Chill: 31°   Ceiling: 6000
Heat Index: 40°   Visibility: 10mi
Dew Point: 13°   Wind: 17mph
Humidity: 33%   Direction: 220°SW
Pressure: 30.08"   Gusts: 25mph
Location:  42.55°N, 70.88°W
Report Text: KBVY 222353Z 22015G22KT 10SM OVC060 04/M11 A3008 RMK AO2 SLP184 T00441106 10061 20039 58009
Loading
Personal Weather Stations






























Interactive Weather Map New forecast layout! Learn more

10-Day Weather Forecast

Advertisements
Track Severe Weather on mobile